createdAt,value
2022-08-27T00:00:23.810Z,1.95
2022-08-27T00:05:26.605Z,2.47
2022-08-27T00:10:30.511Z,2.47
2022-08-27T00:15:33.432Z,2.22
2022-08-27T00:20:35.997Z,2.22
2022-08-27T00:25:40.442Z,2.45
2022-08-27T00:30:43.025Z,2.30
2022-08-27T00:35:45.569Z,2.17
2022-08-27T00:40:50.260Z,2.47
2022-08-27T00:45:56.676Z,2.70
2022-08-27T00:50:59.349Z,2.40
2022-08-27T00:56:09.357Z,2.63
2022-08-27T01:01:15.346Z,2.45
2022-08-27T01:06:19.886Z,2.63
2022-08-27T01:11:25.177Z,2.45
2022-08-27T01:16:34.650Z,2.78
2022-08-27T01:21:42.527Z,3.30
2022-08-27T01:26:46.412Z,3.03
2022-08-27T01:31:49.226Z,3.53
2022-08-27T01:36:51.847Z,3.50
2022-08-27T01:42:06.598Z,3.50
2022-08-27T01:47:09.156Z,3.47
2022-08-27T01:52:13.385Z,3.73
2022-08-27T01:57:17.463Z,3.67
2022-08-27T02:02:21.187Z,3.53
2022-08-27T02:07:23.805Z,4.85
2022-08-27T02:12:27.717Z,4.63
2022-08-27T02:17:30.282Z,3.75
2022-08-27T02:22:32.899Z,4.13
2022-08-27T02:27:37.114Z,4.23
2022-08-27T02:32:39.681Z,4.93
2022-08-27T02:37:42.410Z,4.17
2022-08-27T02:42:47.013Z,4.53
2022-08-27T02:47:49.765Z,4.70
2022-08-27T02:52:52.329Z,4.65
2022-08-27T02:57:57.018Z,4.50
2022-08-27T03:02:59.616Z,4.47
2022-08-27T03:08:03.498Z,5.90
2022-08-27T03:13:07.542Z,5.38
2022-08-27T03:18:19.713Z,4.88
2022-08-27T03:23:25.235Z,5.07
2022-08-27T03:28:31.857Z,5.45
2022-08-27T03:33:36.642Z,4.88
2022-08-27T03:38:39.600Z,5.60
2022-08-27T03:43:43.489Z,5.07
2022-08-27T03:48:47.450Z,6.45
2022-08-27T03:53:50.041Z,7.13
2022-08-27T03:58:53.926Z,7.30
2022-08-27T04:03:56.479Z,8.57
2022-08-27T04:08:59.038Z,8.43
2022-08-27T04:14:06.916Z,9.93
2022-08-27T04:19:26.910Z,9.13
2022-08-27T04:24:31.931Z,10.27
2022-08-27T04:29:36.041Z,10.43
2022-08-27T04:34:38.756Z,12.73
2022-08-27T04:39:41.462Z,12.00
2022-08-27T04:44:49.984Z,8.25
2022-08-27T04:49:52.545Z,6.45
2022-08-27T04:54:55.661Z,6.97
2022-08-27T04:59:59.615Z,7.40
2022-08-27T05:05:02.241Z,7.22
2022-08-27T05:10:05.199Z,6.88
2022-08-27T05:15:10.052Z,6.57
2022-08-27T05:20:12.661Z,6.70
2022-08-27T05:25:15.237Z,7.30
2022-08-27T05:30:19.680Z,6.67
2022-08-27T05:35:23.384Z,7.28
2022-08-27T05:40:26.124Z,7.95
2022-08-27T05:45:30.144Z,8.40
2022-08-27T05:50:32.710Z,7.97
2022-08-27T05:55:39.195Z,8.40
2022-08-27T06:01:04.231Z,7.85
2022-08-27T06:06:11.063Z,7.20
2022-08-27T06:11:13.698Z,5.97
2022-08-27T06:16:19.702Z,5.38
2022-08-27T06:21:24.597Z,5.90
2022-08-27T06:26:28.796Z,5.55
2022-08-27T06:31:35.605Z,4.60
2022-08-27T06:36:40.902Z,5.20
2022-08-27T06:41:44.166Z,4.55
2022-08-27T06:46:48.194Z,3.42
2022-08-27T06:51:50.772Z,3.22
2022-08-27T06:56:53.333Z,2.45
2022-08-27T07:01:57.340Z,2.08
2022-08-27T07:06:59.980Z,2.25
2022-08-27T07:17:10.944Z,1.85
2022-08-27T07:27:21.427Z,1.92
2022-08-27T07:32:30.445Z,2.00
2022-08-27T07:37:35.187Z,1.65
2022-08-27T07:42:55.726Z,2.08
2022-08-27T07:47:59.628Z,1.40
2022-08-27T07:53:02.439Z,1.85
2022-08-27T07:58:05.533Z,1.60
2022-08-27T08:03:15.590Z,1.55
2022-08-27T08:08:18.130Z,1.60
2022-08-27T08:13:20.757Z,1.40
2022-08-27T08:18:24.711Z,1.17
2022-08-27T08:23:27.447Z,1.40
2022-08-27T08:28:30.322Z,1.40
2022-08-27T08:33:34.859Z,1.58
2022-08-27T08:38:38.493Z,1.63
2022-08-27T08:43:49.418Z,1.30
2022-08-27T08:48:58.221Z,1.30
2022-08-27T08:54:05.617Z,8.35
2022-08-27T08:59:14.386Z,1.33
2022-08-27T09:04:18.576Z,1.92
2022-08-27T09:09:24.871Z,1.35
2022-08-27T09:14:36.678Z,1.20
2022-08-27T09:19:41.697Z,1.47
2022-08-27T09:24:52.607Z,1.38
2022-08-27T09:29:57.519Z,1.40
2022-08-27T09:35:05.645Z,1.65
2022-08-27T09:40:23.229Z,1.00
2022-08-27T09:45:28.647Z,0.90
2022-08-27T09:50:41.726Z,1.20
2022-08-27T09:55:49.492Z,1.30
2022-08-27T10:01:01.549Z,1.20
2022-08-27T10:06:06.138Z,1.75
2022-08-27T10:11:15.709Z,1.60
2022-08-27T10:16:42.871Z,1.60
2022-08-27T10:21:54.037Z,1.80
2022-08-27T10:27:08.556Z,1.08
2022-08-27T10:32:20.360Z,1.20
2022-08-27T10:37:40.515Z,1.40
2022-08-27T10:42:48.553Z,1.40
2022-08-27T10:48:08.514Z,1.40
2022-08-27T10:53:23.149Z,1.45
2022-08-27T10:58:43.356Z,1.08
2022-08-27T11:03:52.882Z,1.38
2022-08-27T11:09:01.558Z,1.40
2022-08-27T11:14:20.214Z,1.40
2022-08-27T11:19:29.582Z,1.48
2022-08-27T11:24:40.592Z,1.20
2022-08-27T11:29:50.666Z,1.50
2022-08-27T11:34:57.707Z,1.52
2022-08-27T11:40:29.488Z,1.40
2022-08-27T11:45:38.251Z,1.13
2022-08-27T11:50:40.853Z,1.20
2022-08-27T11:55:44.761Z,1.02
2022-08-27T12:00:48.312Z,1.10
2022-08-27T12:06:09.444Z,1.20
2022-08-27T12:11:31.846Z,1.83
2022-08-27T12:16:42.478Z,1.38
2022-08-27T12:21:57.265Z,1.42
2022-08-27T12:27:13.839Z,1.75
2022-08-27T12:32:27.165Z,1.67
2022-08-27T12:37:32.230Z,1.70
2022-08-27T12:42:36.587Z,1.40
2022-08-27T12:47:44.744Z,1.63
2022-08-27T12:53:15.312Z,1.77
2022-08-27T12:58:26.957Z,1.48
2022-08-27T13:03:34.912Z,2.17
2022-08-27T13:08:37.726Z,1.13
2022-08-27T13:13:41.637Z,1.48
2022-08-27T13:18:48.502Z,1.27
2022-08-27T13:23:56.670Z,1.50
2022-08-27T13:29:03.683Z,1.50
2022-08-27T13:34:07.746Z,1.13
2022-08-27T13:39:10.354Z,1.42
2022-08-27T13:44:19.736Z,1.50
2022-08-27T13:49:26.080Z,1.73
2022-08-27T13:54:31.406Z,1.60
2022-08-27T13:59:42.185Z,1.50
2022-08-27T14:04:49.446Z,1.70
2022-08-27T14:09:55.062Z,1.95
2022-08-27T14:15:01.581Z,1.30
2022-08-27T14:20:06.553Z,1.70
2022-08-27T14:25:12.453Z,1.48
2022-08-27T14:30:18.751Z,1.95
2022-08-27T14:35:25.230Z,2.20
2022-08-27T14:40:28.042Z,1.98
2022-08-27T14:45:33.242Z,2.08
2022-08-27T14:50:36.114Z,1.70
2022-08-27T14:55:39.618Z,1.73
2022-08-27T15:00:44.109Z,1.73
2022-08-27T15:05:46.729Z,1.48
2022-08-27T15:10:50.492Z,1.50
2022-08-27T15:15:54.476Z,1.42
2022-08-27T15:20:57.105Z,1.40
2022-08-27T15:26:00.714Z,2.70
2022-08-27T15:31:04.776Z,1.58
2022-08-27T15:36:07.628Z,1.58
2022-08-27T15:41:11.239Z,1.40
2022-08-27T15:46:15.460Z,1.50
2022-08-27T15:51:21.677Z,1.55
2022-08-27T15:56:24.623Z,1.60
2022-08-27T16:01:31.252Z,1.70
2022-08-27T16:06:34.842Z,1.75
2022-08-27T16:11:37.456Z,1.40
2022-08-27T16:16:41.502Z,1.58
2022-08-27T16:21:44.449Z,1.30
2022-08-27T16:26:48.346Z,1.33
2022-08-27T16:31:52.256Z,1.88
2022-08-27T16:36:54.831Z,1.92
2022-08-27T16:47:02.299Z,1.35
2022-08-27T16:52:06.241Z,1.63
2022-08-27T16:57:08.760Z,1.88
2022-08-27T17:07:21.414Z,1.35
2022-08-27T17:12:28.623Z,1.80
2022-08-27T17:17:32.467Z,1.30
2022-08-27T17:22:35.180Z,1.10
2022-08-27T17:32:44.768Z,1.45
2022-08-27T17:37:47.309Z,1.65
2022-08-27T17:42:49.887Z,1.60
2022-08-27T17:47:53.771Z,1.48
2022-08-27T17:52:56.411Z,1.48
2022-08-27T17:57:59.190Z,1.40
2022-08-27T18:08:05.568Z,1.27
2022-08-27T18:13:09.024Z,1.35
2022-08-27T18:18:15.925Z,1.77
2022-08-27T18:23:18.558Z,1.17
2022-08-27T18:28:22.199Z,2.08
2022-08-27T18:33:26.136Z,1.60
2022-08-27T18:38:29.758Z,1.67
2022-08-27T18:43:34.917Z,1.83
2022-08-27T18:48:38.990Z,2.17
2022-08-27T18:53:43.839Z,1.65
2022-08-27T18:58:47.236Z,2.10
2022-08-27T19:03:53.336Z,1.70
2022-08-27T19:08:55.899Z,1.95
2022-08-27T19:13:58.493Z,1.90
2022-08-27T19:19:04.769Z,2.17
2022-08-27T19:24:08.541Z,1.80
2022-08-27T19:29:11.525Z,2.40
2022-08-27T19:34:15.389Z,1.90
2022-08-27T19:39:18.006Z,2.20
2022-08-27T19:44:20.643Z,2.63
2022-08-27T19:49:24.938Z,2.25
2022-08-27T19:54:32.645Z,2.90
2022-08-27T19:59:36.671Z,2.67
2022-08-27T20:04:51.623Z,3.25
2022-08-27T20:10:08.520Z,2.80
2022-08-27T20:15:12.918Z,3.42
2022-08-27T20:20:18.637Z,2.97
2022-08-27T20:25:21.239Z,2.63
2022-08-27T20:30:26.853Z,3.17
2022-08-27T20:35:30.739Z,3.20
2022-08-27T20:40:34.262Z,3.15
2022-08-27T20:45:37.314Z,3.25
2022-08-27T20:50:41.240Z,3.33
2022-08-27T20:55:43.941Z,3.40
2022-08-27T21:00:46.581Z,3.90
2022-08-27T21:05:50.885Z,3.40
2022-08-27T21:10:56.734Z,3.70
2022-08-27T21:15:59.315Z,3.50
2022-08-27T21:21:07.091Z,3.97
2022-08-27T21:26:11.613Z,4.03
2022-08-27T21:31:14.271Z,3.88
2022-08-27T21:36:18.322Z,4.25
2022-08-27T21:41:21.028Z,4.63
2022-08-27T21:46:23.636Z,3.97
2022-08-27T21:51:27.823Z,5.67
2022-08-27T21:56:30.454Z,4.30
2022-08-27T22:01:33.280Z,4.10
2022-08-27T22:06:37.162Z,4.40
2022-08-27T22:11:39.799Z,3.45
2022-08-27T22:16:42.605Z,3.70
2022-08-27T22:21:47.097Z,4.70
2022-08-27T22:26:49.835Z,4.47
2022-08-27T22:31:52.457Z,4.93
2022-08-27T22:36:56.353Z,5.07
2022-08-27T22:41:59.231Z,5.32
2022-08-27T22:47:03.019Z,5.55
2022-08-27T22:52:07.017Z,6.18
2022-08-27T22:57:10.595Z,5.32
2022-08-27T23:02:13.290Z,5.88
2022-08-27T23:07:17.170Z,6.20
2022-08-27T23:12:20.035Z,6.22
2022-08-27T23:17:23.881Z,7.05
2022-08-27T23:22:31.014Z,6.30
2022-08-27T23:27:33.666Z,7.10
2022-08-27T23:32:36.646Z,5.73
2022-08-27T23:37:41.633Z,7.07
2022-08-27T23:42:45.246Z,7.00
2022-08-27T23:47:47.762Z,8.30
2022-08-27T23:52:51.669Z,8.70
2022-08-27T23:57:57.631Z,8.02
